sensor_id;sensor_type;location;lat;lon;timestamp;pressure;altitude;pressure_sealevel;temperature;humidity
73106;BME280;61559;50.476;15.588;2022-12-29T00:01:35;97456.66;;;1.23;86.00
73106;BME280;61559;50.476;15.588;2022-12-29T00:04:06;97447.86;;;1.19;85.95
73106;BME280;61559;50.476;15.588;2022-12-29T00:06:44;97442.73;;;1.16;85.88
73106;BME280;61559;50.476;15.588;2022-12-29T00:09:16;97443.27;;;1.13;86.00
73106;BME280;61559;50.476;15.588;2022-12-29T00:11:48;97447.88;;;1.09;85.93
73106;BME280;61559;50.476;15.588;2022-12-29T00:14:21;97440.60;;;1.06;85.82
73106;BME280;61559;50.476;15.588;2022-12-29T00:17:10;97437.23;;;1.03;85.82
73106;BME280;61559;50.476;15.588;2022-12-29T00:19:42;97436.91;;;0.98;85.74
73106;BME280;61559;50.476;15.588;2022-12-29T00:22:31;97432.02;;;0.95;85.89
73106;BME280;61559;50.476;15.588;2022-12-29T00:25:20;97427.42;;;0.90;85.82
73106;BME280;61559;50.476;15.588;2022-12-29T00:28:10;97425.13;;;0.82;85.81
73106;BME280;61559;50.476;15.588;2022-12-29T00:31:01;97418.39;;;0.74;85.84
73106;BME280;61559;50.476;15.588;2022-12-29T00:33:50;97424.31;;;0.66;86.11
73106;BME280;61559;50.476;15.588;2022-12-29T00:36:40;97412.95;;;0.64;86.31
73106;BME280;61559;50.476;15.588;2022-12-29T00:39:16;97405.23;;;0.62;86.35
73106;BME280;61559;50.476;15.588;2022-12-29T00:42:07;97413.38;;;0.59;86.37
73106;BME280;61559;50.476;15.588;2022-12-29T00:44:55;97413.30;;;0.57;86.56
73106;BME280;61559;50.476;15.588;2022-12-29T00:47:27;97408.48;;;0.56;86.59
73106;BME280;61559;50.476;15.588;2022-12-29T00:49:58;97402.30;;;0.54;86.58
73106;BME280;61559;50.476;15.588;2022-12-29T00:52:29;97400.16;;;0.54;86.55
73106;BME280;61559;50.476;15.588;2022-12-29T00:55:00;97411.40;;;0.53;86.67
73106;BME280;61559;50.476;15.588;2022-12-29T00:57:30;97414.55;;;0.53;86.76
73106;BME280;61559;50.476;15.588;2022-12-29T01:00:01;97414.48;;;0.52;86.82
73106;BME280;61559;50.476;15.588;2022-12-29T01:02:32;97415.12;;;0.54;86.87
73106;BME280;61559;50.476;15.588;2022-12-29T01:05:04;97413.72;;;0.58;86.95
73106;BME280;61559;50.476;15.588;2022-12-29T01:07:35;97405.23;;;0.61;87.13
73106;BME280;61559;50.476;15.588;2022-12-29T01:10:07;97409.66;;;0.64;87.26
73106;BME280;61559;50.476;15.588;2022-12-29T01:12:42;97411.95;;;0.66;87.17
73106;BME280;61559;50.476;15.588;2022-12-29T01:15:15;97410.25;;;0.69;87.18
73106;BME280;61559;50.476;15.588;2022-12-29T01:17:47;97412.30;;;0.73;87.34
73106;BME280;61559;50.476;15.588;2022-12-29T01:20:18;97409.29;;;0.77;87.35
73106;BME280;61559;50.476;15.588;2022-12-29T01:22:49;97407.68;;;0.81;87.31
73106;BME280;61559;50.476;15.588;2022-12-29T01:25:20;97406.52;;;0.84;87.19
73106;BME280;61559;50.476;15.588;2022-12-29T01:27:51;97408.26;;;0.87;87.24
73106;BME280;61559;50.476;15.588;2022-12-29T01:30:22;97407.70;;;0.89;87.17
73106;BME280;61559;50.476;15.588;2022-12-29T01:32:52;97403.80;;;0.91;87.18
73106;BME280;61559;50.476;15.588;2022-12-29T01:35:23;97406.39;;;0.91;87.08
73106;BME280;61559;50.476;15.588;2022-12-29T01:37:54;97398.42;;;0.92;87.29
73106;BME280;61559;50.476;15.588;2022-12-29T01:40:25;97399.15;;;0.93;87.06
73106;BME280;61559;50.476;15.588;2022-12-29T01:42:56;97396.45;;;0.92;87.18
73106;BME280;61559;50.476;15.588;2022-12-29T01:45:27;97391.64;;;0.92;87.21
73106;BME280;61559;50.476;15.588;2022-12-29T01:48:00;97394.14;;;0.95;87.29
73106;BME280;61559;50.476;15.588;2022-12-29T01:50:35;97395.46;;;0.96;87.33
73106;BME280;61559;50.476;15.588;2022-12-29T01:53:11;97386.20;;;0.98;87.37
73106;BME280;61559;50.476;15.588;2022-12-29T01:55:46;97382.20;;;1.01;87.32
73106;BME280;61559;50.476;15.588;2022-12-29T01:58:20;97382.05;;;1.02;87.18
73106;BME280;61559;50.476;15.588;2022-12-29T02:00:53;97379.42;;;1.03;87.20
73106;BME280;61559;50.476;15.588;2022-12-29T02:03:26;97380.59;;;1.04;87.28
73106;BME280;61559;50.476;15.588;2022-12-29T02:06:01;97375.98;;;1.06;87.28
73106;BME280;61559;50.476;15.588;2022-12-29T02:08:34;97380.25;;;1.07;87.36
73106;BME280;61559;50.476;15.588;2022-12-29T02:11:05;97378.02;;;1.07;87.12
73106;BME280;61559;50.476;15.588;2022-12-29T02:13:36;97373.45;;;1.06;87.14
73106;BME280;61559;50.476;15.588;2022-12-29T02:16:18;97377.30;;;1.05;87.26
73106;BME280;61559;50.476;15.588;2022-12-29T02:18:59;97384.79;;;1.01;87.21
73106;BME280;61559;50.476;15.588;2022-12-29T02:21:54;97385.58;;;0.96;87.18
73106;BME280;61559;50.476;15.588;2022-12-29T02:27:43;97371.43;;;0.98;87.75
73106;BME280;61559;50.476;15.588;2022-12-29T02:30:43;97368.55;;;1.01;88.01
73106;BME280;61559;50.476;15.588;2022-12-29T02:33:23;97363.39;;;1.04;87.81
73106;BME280;61559;50.476;15.588;2022-12-29T02:36:03;97367.06;;;1.06;87.79
73106;BME280;61559;50.476;15.588;2022-12-29T02:38:51;97362.45;;;1.09;87.80
73106;BME280;61559;50.476;15.588;2022-12-29T02:41:32;97362.88;;;1.13;87.76
73106;BME280;61559;50.476;15.588;2022-12-29T02:44:08;97360.50;;;1.16;87.77
73106;BME280;61559;50.476;15.588;2022-12-29T02:46:47;97360.96;;;1.19;87.69
73106;BME280;61559;50.476;15.588;2022-12-29T02:49:25;97356.61;;;1.20;87.67
73106;BME280;61559;50.476;15.588;2022-12-29T02:52:05;97355.09;;;1.21;87.50
73106;BME280;61559;50.476;15.588;2022-12-29T02:54:38;97349.70;;;1.21;87.56
73106;BME280;61559;50.476;15.588;2022-12-29T02:57:14;97347.98;;;1.19;87.51
73106;BME280;61559;50.476;15.588;2022-12-29T02:59:49;97350.16;;;1.20;87.50
73106;BME280;61559;50.476;15.588;2022-12-29T03:02:37;97349.36;;;1.22;87.56
73106;BME280;61559;50.476;15.588;2022-12-29T03:05:25;97356.27;;;1.24;87.64
73106;BME280;61559;50.476;15.588;2022-12-29T03:08:05;97351.91;;;1.27;87.77
73106;BME280;61559;50.476;15.588;2022-12-29T03:10:45;97350.14;;;1.29;87.62
73106;BME280;61559;50.476;15.588;2022-12-29T03:13:25;97350.10;;;1.33;87.64
73106;BME280;61559;50.476;15.588;2022-12-29T03:16:22;97351.17;;;1.33;87.55
73106;BME280;61559;50.476;15.588;2022-12-29T03:18:58;97354.27;;;1.35;87.65
73106;BME280;61559;50.476;15.588;2022-12-29T03:21:36;97349.35;;;1.37;87.54
73106;BME280;61559;50.476;15.588;2022-12-29T03:24:28;97341.86;;;1.41;87.65
73106;BME280;61559;50.476;15.588;2022-12-29T03:27:02;97337.55;;;1.43;87.60
73106;BME280;61559;50.476;15.588;2022-12-29T03:29:39;97337.39;;;1.46;87.63
73106;BME280;61559;50.476;15.588;2022-12-29T03:32:13;97334.20;;;1.48;87.57
73106;BME280;61559;50.476;15.588;2022-12-29T03:34:48;97337.52;;;1.50;87.60
73106;BME280;61559;50.476;15.588;2022-12-29T03:37:22;97335.02;;;1.53;87.59
73106;BME280;61559;50.476;15.588;2022-12-29T03:39:54;97329.80;;;1.53;87.35
73106;BME280;61559;50.476;15.588;2022-12-29T03:42:27;97328.28;;;1.56;87.56
73106;BME280;61559;50.476;15.588;2022-12-29T03:45:00;97324.67;;;1.58;87.57
73106;BME280;61559;50.476;15.588;2022-12-29T03:47:31;97330.88;;;1.59;87.37
73106;BME280;61559;50.476;15.588;2022-12-29T03:50:03;97334.73;;;1.59;87.28
73106;BME280;61559;50.476;15.588;2022-12-29T03:52:34;97339.85;;;1.59;87.13
73106;BME280;61559;50.476;15.588;2022-12-29T03:55:08;97338.55;;;1.60;87.38
73106;BME280;61559;50.476;15.588;2022-12-29T03:57:39;97336.10;;;1.61;87.24
73106;BME280;61559;50.476;15.588;2022-12-29T04:00:10;97332.95;;;1.62;87.33
73106;BME280;61559;50.476;15.588;2022-12-29T04:02:41;97335.39;;;1.62;87.23
73106;BME280;61559;50.476;15.588;2022-12-29T04:05:13;97324.33;;;1.62;87.27
73106;BME280;61559;50.476;15.588;2022-12-29T04:07:44;97321.28;;;1.63;87.33
73106;BME280;61559;50.476;15.588;2022-12-29T04:10:15;97316.56;;;1.63;87.28
73106;BME280;61559;50.476;15.588;2022-12-29T04:12:47;97313.83;;;1.65;87.22
73106;BME280;61559;50.476;15.588;2022-12-29T04:15:18;97309.36;;;1.65;87.17
73106;BME280;61559;50.476;15.588;2022-12-29T04:17:49;97309.35;;;1.65;87.06
73106;BME280;61559;50.476;15.588;2022-12-29T04:20:20;97308.14;;;1.65;87.10
73106;BME280;61559;50.476;15.588;2022-12-29T04:23:08;97306.56;;;1.64;87.10
73106;BME280;61559;50.476;15.588;2022-12-29T04:25:38;97310.31;;;1.64;87.06
73106;BME280;61559;50.476;15.588;2022-12-29T04:28:09;97317.63;;;1.62;87.10
73106;BME280;61559;50.476;15.588;2022-12-29T04:30:40;97318.59;;;1.62;87.10
73106;BME280;61559;50.476;15.588;2022-12-29T04:33:12;97315.75;;;1.62;86.98
73106;BME280;61559;50.476;15.588;2022-12-29T04:35:43;97317.67;;;1.63;86.99
73106;BME280;61559;50.476;15.588;2022-12-29T04:38:15;97319.91;;;1.62;87.01
73106;BME280;61559;50.476;15.588;2022-12-29T04:40:47;97315.70;;;1.61;86.86
73106;BME280;61559;50.476;15.588;2022-12-29T04:43:18;97301.98;;;1.58;86.87
73106;BME280;61559;50.476;15.588;2022-12-29T04:45:49;97304.27;;;1.55;86.83
73106;BME280;61559;50.476;15.588;2022-12-29T04:48:20;97306.70;;;1.54;87.29
73106;BME280;61559;50.476;15.588;2022-12-29T04:50:50;97302.54;;;1.55;87.33
73106;BME280;61559;50.476;15.588;2022-12-29T04:53:21;97305.73;;;1.51;87.20
73106;BME280;61559;50.476;15.588;2022-12-29T04:55:53;97304.66;;;1.49;87.28
73106;BME280;61559;50.476;15.588;2022-12-29T04:58:24;97299.69;;;1.46;87.06
73106;BME280;61559;50.476;15.588;2022-12-29T05:00:55;97294.86;;;1.41;87.28
73106;BME280;61559;50.476;15.588;2022-12-29T05:03:26;97299.02;;;1.39;87.39
73106;BME280;61559;50.476;15.588;2022-12-29T05:05:58;97295.36;;;1.38;87.64
73106;BME280;61559;50.476;15.588;2022-12-29T05:08:29;97293.43;;;1.39;87.71
73106;BME280;61559;50.476;15.588;2022-12-29T05:11:00;97297.04;;;1.41;87.82
73106;BME280;61559;50.476;15.588;2022-12-29T05:13:31;97295.52;;;1.46;87.74
73106;BME280;61559;50.476;15.588;2022-12-29T05:16:02;97294.52;;;1.52;87.69
73106;BME280;61559;50.476;15.588;2022-12-29T05:18:33;97294.63;;;1.58;87.53
73106;BME280;61559;50.476;15.588;2022-12-29T05:21:04;97293.67;;;1.61;87.46
73106;BME280;61559;50.476;15.588;2022-12-29T05:23:35;97291.80;;;1.64;87.56
73106;BME280;61559;50.476;15.588;2022-12-29T05:26:07;97292.90;;;1.64;87.33
73106;BME280;61559;50.476;15.588;2022-12-29T05:28:38;97289.86;;;1.69;87.29
73106;BME280;61559;50.476;15.588;2022-12-29T05:31:09;97287.42;;;1.73;87.32
73106;BME280;61559;50.476;15.588;2022-12-29T05:33:40;97285.06;;;1.77;87.35
73106;BME280;61559;50.476;15.588;2022-12-29T05:36:12;97284.35;;;1.80;87.28
73106;BME280;61559;50.476;15.588;2022-12-29T05:38:43;97282.52;;;1.84;87.40
73106;BME280;61559;50.476;15.588;2022-12-29T05:41:14;97281.14;;;1.87;87.41
73106;BME280;61559;50.476;15.588;2022-12-29T05:43:45;97275.41;;;1.89;87.27
73106;BME280;61559;50.476;15.588;2022-12-29T05:46:16;97273.58;;;1.92;87.35
73106;BME280;61559;50.476;15.588;2022-12-29T05:48:47;97273.73;;;1.94;87.25
73106;BME280;61559;50.476;15.588;2022-12-29T05:51:19;97274.33;;;1.97;87.17
73106;BME280;61559;50.476;15.588;2022-12-29T05:53:49;97274.23;;;1.97;87.21
73106;BME280;61559;50.476;15.588;2022-12-29T05:56:20;97280.08;;;1.96;87.11
73106;BME280;61559;50.476;15.588;2022-12-29T05:58:51;97278.61;;;1.94;87.05
73106;BME280;61559;50.476;15.588;2022-12-29T06:01:20;97277.39;;;1.94;87.09
73106;BME280;61559;50.476;15.588;2022-12-29T06:03:51;97276.06;;;1.93;87.20
73106;BME280;61559;50.476;15.588;2022-12-29T06:06:21;97280.44;;;1.95;87.03
73106;BME280;61559;50.476;15.588;2022-12-29T06:08:52;97279.06;;;1.96;87.09
73106;BME280;61559;50.476;15.588;2022-12-29T06:11:22;97276.98;;;1.98;86.96
73106;BME280;61559;50.476;15.588;2022-12-29T06:13:53;97286.78;;;1.97;86.96
73106;BME280;61559;50.476;15.588;2022-12-29T06:16:24;97284.09;;;2.00;87.10
73106;BME280;61559;50.476;15.588;2022-12-29T06:18:55;97282.82;;;2.00;87.03
73106;BME280;61559;50.476;15.588;2022-12-29T06:21:26;97283.73;;;2.01;87.08
73106;BME280;61559;50.476;15.588;2022-12-29T06:23:57;97281.80;;;2.01;87.06
73106;BME280;61559;50.476;15.588;2022-12-29T06:26:28;97276.92;;;2.01;87.08
73106;BME280;61559;50.476;15.588;2022-12-29T06:29:01;97272.66;;;2.00;86.93
73106;BME280;61559;50.476;15.588;2022-12-29T06:31:30;97273.01;;;2.01;86.84
73106;BME280;61559;50.476;15.588;2022-12-29T06:34:02;97278.95;;;1.99;86.75
73106;BME280;61559;50.476;15.588;2022-12-29T06:36:37;97276.88;;;1.99;86.58
73106;BME280;61559;50.476;15.588;2022-12-29T06:39:09;97282.77;;;1.99;86.59
73106;BME280;61559;50.476;15.588;2022-12-29T06:41:40;97284.29;;;2.02;86.42
73106;BME280;61559;50.476;15.588;2022-12-29T06:44:11;97288.65;;;2.05;86.42
73106;BME280;61559;50.476;15.588;2022-12-29T06:46:42;97292.46;;;2.08;86.23
73106;BME280;61559;50.476;15.588;2022-12-29T06:49:13;97295.96;;;2.12;86.23
73106;BME280;61559;50.476;15.588;2022-12-29T06:51:45;97307.79;;;2.17;86.29
73106;BME280;61559;50.476;15.588;2022-12-29T06:54:15;97307.13;;;2.20;86.44
73106;BME280;61559;50.476;15.588;2022-12-29T06:56:46;97306.21;;;2.17;86.64
73106;BME280;61559;50.476;15.588;2022-12-29T06:59:17;97301.80;;;2.16;86.88
73106;BME280;61559;50.476;15.588;2022-12-29T07:01:48;97299.77;;;2.16;86.77
73106;BME280;61559;50.476;15.588;2022-12-29T07:04:18;97300.67;;;2.19;86.48
73106;BME280;61559;50.476;15.588;2022-12-29T07:06:49;97295.60;;;2.18;86.15
73106;BME280;61559;50.476;15.588;2022-12-29T07:09:20;97296.61;;;2.21;85.92
73106;BME280;61559;50.476;15.588;2022-12-29T07:11:51;97297.89;;;2.22;85.53
73106;BME280;61559;50.476;15.588;2022-12-29T07:14:22;97300.67;;;2.24;85.00
73106;BME280;61559;50.476;15.588;2022-12-29T07:16:53;97298.44;;;2.25;85.21
73106;BME280;61559;50.476;15.588;2022-12-29T07:19:24;97292.89;;;2.26;85.49
73106;BME280;61559;50.476;15.588;2022-12-29T07:21:56;97293.09;;;2.25;85.78
73106;BME280;61559;50.476;15.588;2022-12-29T07:24:28;97290.60;;;2.24;85.40
73106;BME280;61559;50.476;15.588;2022-12-29T07:26:59;97294.27;;;2.24;85.68
73106;BME280;61559;50.476;15.588;2022-12-29T07:29:30;97295.58;;;2.25;85.82
73106;BME280;61559;50.476;15.588;2022-12-29T07:32:00;97300.31;;;2.27;85.89
73106;BME280;61559;50.476;15.588;2022-12-29T07:34:31;97302.09;;;2.28;86.00
73106;BME280;61559;50.476;15.588;2022-12-29T07:37:02;97306.45;;;2.33;85.91
73106;BME280;61559;50.476;15.588;2022-12-29T07:39:33;97303.29;;;2.36;85.72
73106;BME280;61559;50.476;15.588;2022-12-29T07:42:04;97308.87;;;2.42;85.81
73106;BME280;61559;50.476;15.588;2022-12-29T07:44:35;97307.29;;;2.47;85.81
73106;BME280;61559;50.476;15.588;2022-12-29T07:47:07;97307.13;;;2.53;85.57
73106;BME280;61559;50.476;15.588;2022-12-29T07:49:38;97312.60;;;2.55;85.29
73106;BME280;61559;50.476;15.588;2022-12-29T07:52:09;97313.67;;;2.58;85.15
73106;BME280;61559;50.476;15.588;2022-12-29T07:54:39;97309.25;;;2.62;85.25
73106;BME280;61559;50.476;15.588;2022-12-29T07:57:10;97303.40;;;2.63;85.50
73106;BME280;61559;50.476;15.588;2022-12-29T07:59:40;97312.14;;;2.65;85.30
73106;BME280;61559;50.476;15.588;2022-12-29T08:02:12;97313.25;;;2.67;85.14
73106;BME280;61559;50.476;15.588;2022-12-29T08:04:43;97309.08;;;2.69;84.96
73106;BME280;61559;50.476;15.588;2022-12-29T08:07:14;97308.45;;;2.72;84.86
73106;BME280;61559;50.476;15.588;2022-12-29T08:09:44;97309.88;;;2.73;84.56
73106;BME280;61559;50.476;15.588;2022-12-29T08:12:15;97312.73;;;2.72;84.68
73106;BME280;61559;50.476;15.588;2022-12-29T08:14:46;97312.98;;;2.72;84.61
73106;BME280;61559;50.476;15.588;2022-12-29T08:17:17;97313.68;;;2.74;84.80
73106;BME280;61559;50.476;15.588;2022-12-29T08:19:48;97315.77;;;2.76;84.82
73106;BME280;61559;50.476;15.588;2022-12-29T08:22:19;97315.77;;;2.78;84.46
73106;BME280;61559;50.476;15.588;2022-12-29T08:24:49;97316.71;;;2.79;84.29
73106;BME280;61559;50.476;15.588;2022-12-29T08:27:21;97321.10;;;2.78;84.05
73106;BME280;61559;50.476;15.588;2022-12-29T08:29:52;97324.20;;;2.78;83.77
73106;BME280;61559;50.476;15.588;2022-12-29T08:32:23;97322.37;;;2.79;83.83
73106;BME280;61559;50.476;15.588;2022-12-29T08:34:55;97323.09;;;2.79;83.80
73106;BME280;61559;50.476;15.588;2022-12-29T08:37:26;97326.99;;;2.79;83.63
73106;BME280;61559;50.476;15.588;2022-12-29T08:40:00;97333.66;;;2.78;83.61
73106;BME280;61559;50.476;15.588;2022-12-29T08:42:33;97331.83;;;2.78;83.94
73106;BME280;61559;50.476;15.588;2022-12-29T08:45:06;97331.92;;;2.80;83.92
73106;BME280;61559;50.476;15.588;2022-12-29T08:47:38;97335.79;;;2.80;83.77
73106;BME280;61559;50.476;15.588;2022-12-29T08:50:10;97336.45;;;2.81;83.57
73106;BME280;61559;50.476;15.588;2022-12-29T08:52:41;97334.73;;;2.81;83.97
73106;BME280;61559;50.476;15.588;2022-12-29T08:55:12;97335.88;;;2.84;84.23
73106;BME280;61559;50.476;15.588;2022-12-29T08:57:43;97334.90;;;2.87;84.10
73106;BME280;61559;50.476;15.588;2022-12-29T09:00:15;97338.04;;;2.91;83.99
73106;BME280;61559;50.476;15.588;2022-12-29T09:02:47;97336.86;;;2.93;83.82
73106;BME280;61559;50.476;15.588;2022-12-29T09:05:19;97338.73;;;2.96;83.68
73106;BME280;61559;50.476;15.588;2022-12-29T09:07:50;97337.86;;;2.98;83.68
73106;BME280;61559;50.476;15.588;2022-12-29T09:10:21;97337.55;;;3.01;83.55
73106;BME280;61559;50.476;15.588;2022-12-29T09:12:52;97331.75;;;3.03;83.41
73106;BME280;61559;50.476;15.588;2022-12-29T09:15:23;97324.10;;;3.03;82.96
73106;BME280;61559;50.476;15.588;2022-12-29T09:17:55;97318.70;;;3.04;82.48
73106;BME280;61559;50.476;15.588;2022-12-29T09:20:26;97318.70;;;3.07;82.99
73106;BME280;61559;50.476;15.588;2022-12-29T09:22:57;97317.35;;;3.11;82.57
73106;BME280;61559;50.476;15.588;2022-12-29T09:25:28;97316.73;;;3.14;82.37
73106;BME280;61559;50.476;15.588;2022-12-29T09:27:59;97319.05;;;3.17;81.98
73106;BME280;61559;50.476;15.588;2022-12-29T09:30:33;97315.94;;;3.19;81.94
73106;BME280;61559;50.476;15.588;2022-12-29T09:33:03;97321.46;;;3.23;82.03
73106;BME280;61559;50.476;15.588;2022-12-29T09:35:34;97312.86;;;3.25;82.19
73106;BME280;61559;50.476;15.588;2022-12-29T09:38:04;97312.46;;;3.32;81.89
73106;BME280;61559;50.476;15.588;2022-12-29T09:40:35;97306.34;;;3.35;81.81
73106;BME280;61559;50.476;15.588;2022-12-29T09:43:25;97308.66;;;3.39;81.71
73106;BME280;61559;50.476;15.588;2022-12-29T09:46:06;97305.33;;;3.42;81.79
73106;BME280;61559;50.476;15.588;2022-12-29T09:48:45;97307.16;;;3.47;82.07
73106;BME280;61559;50.476;15.588;2022-12-29T09:51:23;97303.29;;;3.54;81.97
73106;BME280;61559;50.476;15.588;2022-12-29T09:53:58;97296.27;;;3.61;81.74
73106;BME280;61559;50.476;15.588;2022-12-29T09:56:31;97291.73;;;3.69;81.81
73106;BME280;61559;50.476;15.588;2022-12-29T09:59:07;97288.20;;;3.76;81.90
73106;BME280;61559;50.476;15.588;2022-12-29T10:01:49;97290.98;;;3.85;81.62
73106;BME280;61559;50.476;15.588;2022-12-29T10:04:23;97291.85;;;3.92;81.65
73106;BME280;61559;50.476;15.588;2022-12-29T10:07:00;97289.60;;;4.00;81.76
73106;BME280;61559;50.476;15.588;2022-12-29T10:09:59;97286.11;;;4.08;81.64
73106;BME280;61559;50.476;15.588;2022-12-29T10:12:45;97287.52;;;4.15;81.39
73106;BME280;61559;50.476;15.588;2022-12-29T10:15:38;97291.73;;;4.23;80.98
73106;BME280;61559;50.476;15.588;2022-12-29T10:18:20;97291.01;;;4.29;80.79
73106;BME280;61559;50.476;15.588;2022-12-29T10:21:00;97297.56;;;4.34;80.64
73106;BME280;61559;50.476;15.588;2022-12-29T10:23:42;97291.04;;;4.39;80.43
73106;BME280;61559;50.476;15.588;2022-12-29T10:26:20;97283.46;;;4.41;79.86
73106;BME280;61559;50.476;15.588;2022-12-29T10:28:56;97278.13;;;4.45;80.17
73106;BME280;61559;50.476;15.588;2022-12-29T10:31:41;97274.55;;;4.49;80.14
73106;BME280;61559;50.476;15.588;2022-12-29T10:34:19;97275.02;;;4.54;79.84
73106;BME280;61559;50.476;15.588;2022-12-29T10:36:55;97269.59;;;4.55;79.99
73106;BME280;61559;50.476;15.588;2022-12-29T10:39:32;97262.95;;;4.57;79.78
73106;BME280;61559;50.476;15.588;2022-12-29T10:42:13;97261.20;;;4.57;79.22
73106;BME280;61559;50.476;15.588;2022-12-29T10:44:46;97260.39;;;4.57;79.75
73106;BME280;61559;50.476;15.588;2022-12-29T10:47:20;97257.73;;;4.59;79.95
73106;BME280;61559;50.476;15.588;2022-12-29T10:49:53;97253.14;;;4.63;79.98
73106;BME280;61559;50.476;15.588;2022-12-29T10:52:26;97253.77;;;4.65;79.35
73106;BME280;61559;50.476;15.588;2022-12-29T10:55:00;97253.52;;;4.65;79.29
73106;BME280;61559;50.476;15.588;2022-12-29T10:57:35;97251.13;;;4.65;79.14
73106;BME280;61559;50.476;15.588;2022-12-29T11:00:13;97249.25;;;4.64;78.48
73106;BME280;61559;50.476;15.588;2022-12-29T11:02:57;97242.61;;;4.60;78.12
73106;BME280;61559;50.476;15.588;2022-12-29T11:05:36;97249.14;;;4.60;78.28
73106;BME280;61559;50.476;15.588;2022-12-29T11:08:12;97243.62;;;4.61;78.76
73106;BME280;61559;50.476;15.588;2022-12-29T11:10:46;97236.88;;;4.61;78.56
73106;BME280;61559;50.476;15.588;2022-12-29T11:13:28;97234.88;;;4.62;78.38
73106;BME280;61559;50.476;15.588;2022-12-29T11:16:07;97226.80;;;4.65;78.60
73106;BME280;61559;50.476;15.588;2022-12-29T11:18:43;97221.01;;;4.67;78.60
73106;BME280;61559;50.476;15.588;2022-12-29T11:21:31;97219.96;;;4.69;78.65
73106;BME280;61559;50.476;15.588;2022-12-29T11:24:04;97213.73;;;4.73;78.88
73106;BME280;61559;50.476;15.588;2022-12-29T11:26:35;97216.46;;;4.79;79.03
73106;BME280;61559;50.476;15.588;2022-12-29T11:29:20;97218.08;;;4.84;79.12
73106;BME280;61559;50.476;15.588;2022-12-29T11:31:54;97213.63;;;4.89;79.52
73106;BME280;61559;50.476;15.588;2022-12-29T11:34:30;97205.09;;;4.93;79.64
73106;BME280;61559;50.476;15.588;2022-12-29T11:37:05;97207.52;;;4.98;79.49
73106;BME280;61559;50.476;15.588;2022-12-29T11:39:39;97206.23;;;5.01;79.16
73106;BME280;61559;50.476;15.588;2022-12-29T11:42:16;97196.00;;;5.01;79.33
73106;BME280;61559;50.476;15.588;2022-12-29T11:44:49;97193.17;;;5.03;79.28
73106;BME280;61559;50.476;15.588;2022-12-29T11:47:28;97199.65;;;5.07;79.13
73106;BME280;61559;50.476;15.588;2022-12-29T11:50:02;97197.81;;;5.06;78.79
73106;BME280;61559;50.476;15.588;2022-12-29T11:52:36;97195.20;;;5.07;79.11
73106;BME280;61559;50.476;15.588;2022-12-29T11:55:21;97189.25;;;5.09;78.67
73106;BME280;61559;50.476;15.588;2022-12-29T11:57:51;97188.55;;;5.11;78.79
73106;BME280;61559;50.476;15.588;2022-12-29T12:00:25;97190.70;;;5.15;79.28
73106;BME280;61559;50.476;15.588;2022-12-29T12:03:00;97186.87;;;5.21;79.22
73106;BME280;61559;50.476;15.588;2022-12-29T12:05:43;97190.52;;;5.25;78.71
73106;BME280;61559;50.476;15.588;2022-12-29T12:08:20;97189.21;;;5.27;79.13
73106;BME280;61559;50.476;15.588;2022-12-29T12:10:57;97187.96;;;5.33;79.11
73106;BME280;61559;50.476;15.588;2022-12-29T12:13:33;97186.64;;;5.35;78.47
73106;BME280;61559;50.476;15.588;2022-12-29T12:16:10;97187.89;;;5.37;78.25
73106;BME280;61559;50.476;15.588;2022-12-29T12:18:47;97182.91;;;5.39;78.78
73106;BME280;61559;50.476;15.588;2022-12-29T12:21:25;97187.34;;;5.42;78.75
73106;BME280;61559;50.476;15.588;2022-12-29T12:24:15;97180.45;;;5.45;78.48
73106;BME280;61559;50.476;15.588;2022-12-29T12:26:58;97173.13;;;5.49;78.07
73106;BME280;61559;50.476;15.588;2022-12-29T12:29:36;97176.38;;;5.51;78.72
73106;BME280;61559;50.476;15.588;2022-12-29T12:32:16;97175.89;;;5.52;78.33
73106;BME280;61559;50.476;15.588;2022-12-29T12:34:50;97173.94;;;5.53;78.46
73106;BME280;61559;50.476;15.588;2022-12-29T12:37:47;97172.73;;;5.55;78.14
73106;BME280;61559;50.476;15.588;2022-12-29T12:40:39;97161.54;;;5.56;78.47
73106;BME280;61559;50.476;15.588;2022-12-29T12:43:28;97163.18;;;5.55;78.83
73106;BME280;61559;50.476;15.588;2022-12-29T12:46:13;97156.34;;;5.55;78.65
73106;BME280;61559;50.476;15.588;2022-12-29T12:49:01;97160.29;;;5.54;78.70
73106;BME280;61559;50.476;15.588;2022-12-29T12:51:42;97160.73;;;5.54;78.69
73106;BME280;61559;50.476;15.588;2022-12-29T12:54:29;97158.53;;;5.58;78.81
73106;BME280;61559;50.476;15.588;2022-12-29T12:57:11;97159.46;;;5.60;79.25
73106;BME280;61559;50.476;15.588;2022-12-29T12:59:56;97153.30;;;5.65;79.21
73106;BME280;61559;50.476;15.588;2022-12-29T13:02:39;97151.57;;;5.68;79.14
73106;BME280;61559;50.476;15.588;2022-12-29T13:05:28;97155.35;;;5.68;79.29
73106;BME280;61559;50.476;15.588;2022-12-29T13:08:24;97152.55;;;5.67;79.20
73106;BME280;61559;50.476;15.588;2022-12-29T13:11:02;97152.81;;;5.64;79.64
73106;BME280;61559;50.476;15.588;2022-12-29T13:14:06;97148.64;;;5.63;79.70
73106;BME280;61559;50.476;15.588;2022-12-29T13:16:47;97153.46;;;5.62;79.26
73106;BME280;61559;50.476;15.588;2022-12-29T13:19:25;97152.65;;;5.61;78.82
73106;BME280;61559;50.476;15.588;2022-12-29T13:22:05;97148.64;;;5.60;78.83
73106;BME280;61559;50.476;15.588;2022-12-29T13:24:50;97144.20;;;5.59;79.47
73106;BME280;61559;50.476;15.588;2022-12-29T13:27:29;97148.85;;;5.57;78.89
73106;BME280;61559;50.476;15.588;2022-12-29T13:30:10;97147.79;;;5.55;78.95
73106;BME280;61559;50.476;15.588;2022-12-29T13:32:54;97149.41;;;5.54;78.77
73106;BME280;61559;50.476;15.588;2022-12-29T13:35:38;97152.09;;;5.52;79.36
73106;BME280;61559;50.476;15.588;2022-12-29T13:38:17;97150.01;;;5.52;79.44
73106;BME280;61559;50.476;15.588;2022-12-29T13:40:52;97152.39;;;5.53;79.12
73106;BME280;61559;50.476;15.588;2022-12-29T13:43:26;97156.61;;;5.51;79.26
73106;BME280;61559;50.476;15.588;2022-12-29T13:46:00;97158.31;;;5.46;79.93